createdAt,value
2023-01-05T00:01:21.668Z,4.63
2023-01-05T00:03:48.468Z,4.00
2023-01-05T00:06:15.674Z,3.03
2023-01-05T00:08:42.374Z,6.07
2023-01-05T00:11:41.138Z,5.25
2023-01-05T00:14:29.474Z,3.78
2023-01-05T00:17:14.485Z,3.53
2023-01-05T00:19:59.975Z,5.07
2023-01-05T00:22:38.610Z,4.00
2023-01-05T00:25:13.279Z,3.53
2023-01-05T00:27:43.503Z,8.65
2023-01-05T00:30:11.713Z,8.90
2023-01-05T00:32:38.548Z,7.53
2023-01-05T00:35:05.570Z,7.90
2023-01-05T00:37:33.317Z,5.88
2023-01-05T00:40:00.054Z,8.60
2023-01-05T00:42:26.956Z,8.57
2023-01-05T00:44:53.670Z,7.50
2023-01-05T00:47:20.390Z,6.28
2023-01-05T00:49:47.125Z,7.63
2023-01-05T00:52:13.817Z,9.73
2023-01-05T00:54:40.535Z,12.18
2023-01-05T00:57:07.496Z,5.78
2023-01-05T00:59:34.254Z,5.32
2023-01-05T01:02:01.082Z,6.93
2023-01-05T01:04:27.989Z,7.70
2023-01-05T01:06:54.797Z,9.30
2023-01-05T01:09:21.544Z,13.07
2023-01-05T01:11:48.373Z,11.73
2023-01-05T01:14:15.131Z,10.18
2023-01-05T01:16:42.440Z,10.52
2023-01-05T01:19:12.734Z,10.02
2023-01-05T01:21:39.424Z,8.95
2023-01-05T01:24:06.501Z,7.65
2023-01-05T01:26:33.409Z,7.75
2023-01-05T01:29:00.130Z,7.00
2023-01-05T01:31:26.839Z,12.10
2023-01-05T01:33:53.580Z,8.63
2023-01-05T01:36:20.563Z,5.03
2023-01-05T01:38:47.430Z,7.53
2023-01-05T01:41:14.207Z,6.50
2023-01-05T01:43:52.095Z,7.47
2023-01-05T01:46:19.759Z,7.47
2023-01-05T01:49:00.622Z,10.32
2023-01-05T01:51:46.652Z,7.78
2023-01-05T01:54:15.965Z,10.80
2023-01-05T01:56:50.244Z,8.10
2023-01-05T01:59:17.404Z,13.70
2023-01-05T02:01:44.229Z,9.80
2023-01-05T02:04:11.155Z,11.18
2023-01-05T02:06:37.921Z,12.88
2023-01-05T02:09:04.713Z,9.23
2023-01-05T02:11:43.416Z,13.10
2023-01-05T02:14:42.726Z,10.20
2023-01-05T02:17:48.669Z,5.03
2023-01-05T02:20:37.666Z,9.80
2023-01-05T02:23:16.599Z,7.50
2023-01-05T02:25:54.966Z,8.48
2023-01-05T02:28:24.519Z,8.50
2023-01-05T02:30:59.702Z,5.30
2023-01-05T02:33:43.675Z,5.20
2023-01-05T02:36:15.575Z,5.50
2023-01-05T02:39:14.393Z,10.27
2023-01-05T02:42:05.309Z,7.00
2023-01-05T02:44:33.423Z,5.32
2023-01-05T02:47:25.013Z,4.50
2023-01-05T02:49:53.287Z,6.55
2023-01-05T02:52:19.987Z,6.90
2023-01-05T02:54:50.173Z,5.25
2023-01-05T02:57:42.539Z,4.72
2023-01-05T03:00:10.621Z,5.45
2023-01-05T03:02:37.463Z,4.10
2023-01-05T03:05:09.892Z,8.88
2023-01-05T03:07:39.496Z,7.40
2023-01-05T03:10:25.154Z,8.68
2023-01-05T03:13:11.407Z,5.03
2023-01-05T03:15:38.129Z,9.30
2023-01-05T03:18:07.158Z,9.60
2023-01-05T03:20:34.425Z,6.93
2023-01-05T03:23:20.786Z,5.05
2023-01-05T03:26:06.025Z,3.08
2023-01-05T03:29:02.652Z,3.47
2023-01-05T03:31:53.823Z,3.17
2023-01-05T03:34:42.092Z,10.35
2023-01-05T03:37:15.072Z,10.43
2023-01-05T03:39:43.348Z,5.00
2023-01-05T03:42:10.263Z,7.85
2023-01-05T03:44:38.845Z,12.05
2023-01-05T03:47:05.577Z,6.00
2023-01-05T03:49:32.380Z,11.63
2023-01-05T03:51:59.179Z,10.95
2023-01-05T03:54:25.841Z,11.13
2023-01-05T03:56:52.526Z,7.30
2023-01-05T03:59:19.464Z,6.47
2023-01-05T04:01:46.223Z,7.68
2023-01-05T04:04:13.032Z,4.85
2023-01-05T04:06:39.774Z,5.18
2023-01-05T04:09:06.412Z,4.45
2023-01-05T04:11:33.175Z,5.38
2023-01-05T04:13:59.887Z,6.22
2023-01-05T04:16:28.574Z,4.47
2023-01-05T04:18:55.463Z,5.60
2023-01-05T04:21:22.149Z,3.65
2023-01-05T04:23:48.792Z,6.97
2023-01-05T04:26:17.465Z,11.25
2023-01-05T04:28:44.145Z,8.80
2023-01-05T04:31:10.973Z,5.90
2023-01-05T04:33:39.568Z,4.95
2023-01-05T04:36:07.463Z,5.65
2023-01-05T04:38:34.148Z,3.95
2023-01-05T04:41:00.861Z,2.58
2023-01-05T04:43:27.531Z,2.72
2023-01-05T04:45:54.274Z,2.47
2023-01-05T04:48:20.953Z,2.75
2023-01-05T04:50:53.798Z,5.22
2023-01-05T04:53:20.549Z,4.35
2023-01-05T04:55:47.187Z,3.25
2023-01-05T04:58:13.862Z,4.32
2023-01-05T05:00:40.530Z,4.88
2023-01-05T05:03:07.495Z,8.43
2023-01-05T05:05:34.234Z,6.28
2023-01-05T05:08:01.006Z,5.63
2023-01-05T05:10:27.907Z,7.18
2023-01-05T05:12:54.675Z,4.22
2023-01-05T05:15:21.404Z,5.22
2023-01-05T05:17:48.443Z,4.80
2023-01-05T05:20:15.265Z,6.20
2023-01-05T05:22:41.943Z,7.07
2023-01-05T05:25:09.045Z,7.43
2023-01-05T05:27:35.819Z,9.50
2023-01-05T05:30:02.558Z,4.93
2023-01-05T05:32:29.854Z,7.38
2023-01-05T05:34:56.557Z,3.65
2023-01-05T05:37:23.287Z,5.50
2023-01-05T05:39:50.674Z,3.08
2023-01-05T05:42:17.299Z,4.70
2023-01-05T05:44:43.992Z,5.68
2023-01-05T05:47:10.751Z,6.18
2023-01-05T05:49:37.548Z,14.25
2023-01-05T05:52:04.413Z,8.07
2023-01-05T05:54:31.197Z,8.00
2023-01-05T05:56:59.795Z,3.63
2023-01-05T05:59:26.439Z,3.60
2023-01-05T06:01:53.255Z,5.60
2023-01-05T06:04:20.688Z,2.30
2023-01-05T06:06:47.351Z,3.70
2023-01-05T06:09:14.149Z,3.72
2023-01-05T06:11:40.870Z,3.78
2023-01-05T06:14:08.410Z,4.28
2023-01-05T06:16:35.204Z,4.00
2023-01-05T06:19:01.922Z,6.15
2023-01-05T06:21:28.694Z,5.85
2023-01-05T06:23:55.565Z,6.75
2023-01-05T06:26:22.336Z,5.35
2023-01-05T06:28:49.037Z,7.22
2023-01-05T06:31:15.790Z,4.85
2023-01-05T06:33:42.466Z,5.55
2023-01-05T06:36:09.296Z,8.18
2023-01-05T06:38:36.040Z,7.78
2023-01-05T06:41:03.338Z,6.50
2023-01-05T06:43:30.146Z,6.90
2023-01-05T06:45:56.874Z,6.25
2023-01-05T06:48:23.593Z,11.13
2023-01-05T06:50:50.377Z,6.40
2023-01-05T06:53:17.080Z,6.10
2023-01-05T06:55:44.750Z,6.10
2023-01-05T06:58:11.558Z,5.75
2023-01-05T07:00:38.275Z,4.65
2023-01-05T07:03:05.959Z,5.47
2023-01-05T07:05:32.798Z,5.60
2023-01-05T07:07:59.522Z,5.68
2023-01-05T07:10:26.269Z,4.40
2023-01-05T07:12:53.009Z,4.53
2023-01-05T07:15:19.903Z,3.03
2023-01-05T07:17:46.734Z,3.03
2023-01-05T07:20:13.423Z,4.07
2023-01-05T07:22:40.198Z,7.00
2023-01-05T07:25:07.313Z,7.65
2023-01-05T07:27:34.099Z,5.93
2023-01-05T07:30:00.880Z,4.70
2023-01-05T07:32:27.642Z,4.65
2023-01-05T07:34:55.685Z,5.78
2023-01-05T07:37:24.727Z,5.50
2023-01-05T07:39:51.854Z,5.15
2023-01-05T07:42:18.640Z,4.90
2023-01-05T07:44:45.487Z,3.45
2023-01-05T07:47:12.377Z,3.08
2023-01-05T07:49:39.249Z,3.28
2023-01-05T07:52:06.036Z,3.83
2023-01-05T07:54:32.796Z,5.28
2023-01-05T07:56:59.564Z,9.18
2023-01-05T07:59:26.327Z,5.40
2023-01-05T08:01:53.150Z,3.45
2023-01-05T08:04:19.957Z,2.92
2023-01-05T08:06:46.665Z,3.60
2023-01-05T08:09:32.164Z,3.80
2023-01-05T08:11:58.882Z,4.03
2023-01-05T08:14:25.540Z,4.07
2023-01-05T08:16:52.270Z,3.60
2023-01-05T08:19:19.761Z,4.72
2023-01-05T08:21:46.498Z,3.63
2023-01-05T08:24:13.194Z,3.30
2023-01-05T08:26:40.001Z,3.40
2023-01-05T08:29:06.712Z,4.85
2023-01-05T08:31:37.426Z,3.58
2023-01-05T08:34:04.682Z,2.03
2023-01-05T08:36:31.701Z,4.60
2023-01-05T08:39:01.203Z,2.65
2023-01-05T08:41:30.654Z,3.40
2023-01-05T08:43:59.107Z,2.28
2023-01-05T08:46:27.624Z,3.45
2023-01-05T08:48:56.256Z,2.28
2023-01-05T08:51:23.023Z,1.98
2023-01-05T08:53:49.930Z,2.55
2023-01-05T08:56:16.814Z,4.68
2023-01-05T08:58:43.566Z,2.80
2023-01-05T09:01:14.894Z,3.25
2023-01-05T09:03:41.757Z,2.55
2023-01-05T09:06:09.490Z,4.43
2023-01-05T09:08:36.179Z,2.85
2023-01-05T09:11:10.171Z,2.25
2023-01-05T09:13:37.368Z,4.13
2023-01-05T09:16:09.429Z,3.10
2023-01-05T09:18:36.962Z,4.72
2023-01-05T09:21:04.440Z,3.13
2023-01-05T09:23:31.199Z,3.03
2023-01-05T09:25:57.904Z,3.88
2023-01-05T09:28:24.591Z,3.30
2023-01-05T09:30:51.497Z,5.28
2023-01-05T09:33:18.326Z,5.90
2023-01-05T09:35:44.993Z,3.53
2023-01-05T09:38:11.712Z,5.13
2023-01-05T09:40:41.694Z,3.00
2023-01-05T09:43:19.528Z,5.57
2023-01-05T09:45:46.346Z,3.25
2023-01-05T09:48:13.764Z,3.05
2023-01-05T09:50:40.466Z,5.50
2023-01-05T09:53:08.635Z,3.25
2023-01-05T09:55:35.443Z,3.03
2023-01-05T09:58:16.384Z,2.20
2023-01-05T10:00:44.852Z,2.58
2023-01-05T10:03:53.755Z,3.05
2023-01-05T10:06:10.988Z,3.42
2023-01-05T10:08:40.276Z,3.90
2023-01-05T10:11:32.379Z,1.45
2023-01-05T10:14:09.437Z,1.88
2023-01-05T10:16:37.309Z,1.88
2023-01-05T10:19:04.179Z,3.45
2023-01-05T10:21:33.866Z,3.70
2023-01-05T10:24:03.508Z,2.28
2023-01-05T10:26:45.221Z,1.20
2023-01-05T10:29:22.473Z,3.20
2023-01-05T10:31:53.697Z,2.20
2023-01-05T10:34:23.872Z,1.83
2023-01-05T10:37:18.484Z,1.77
2023-01-05T10:39:54.178Z,2.50
2023-01-05T10:42:43.492Z,2.03
2023-01-05T10:45:14.611Z,1.73
2023-01-05T10:47:41.543Z,3.42
2023-01-05T10:50:26.933Z,2.88
2023-01-05T10:52:54.158Z,2.70
2023-01-05T10:55:20.942Z,2.13
2023-01-05T10:57:47.824Z,1.52
2023-01-05T11:00:21.718Z,1.35
2023-01-05T11:02:53.090Z,1.35
2023-01-05T11:05:36.575Z,1.88
2023-01-05T11:08:07.643Z,1.92
2023-01-05T11:10:51.313Z,2.08
2023-01-05T11:13:26.931Z,1.63
2023-01-05T11:15:55.321Z,1.63
2023-01-05T11:18:25.651Z,1.20
2023-01-05T11:21:06.570Z,1.70
2023-01-05T11:23:41.581Z,2.47
2023-01-05T11:26:32.372Z,1.10
2023-01-05T11:29:08.893Z,2.70
2023-01-05T11:31:43.055Z,2.33
2023-01-05T11:34:21.668Z,1.27
2023-01-05T11:37:02.590Z,1.40
2023-01-05T11:39:35.456Z,1.08
2023-01-05T11:42:13.297Z,2.85
2023-01-05T11:44:46.165Z,2.45
2023-01-05T11:47:24.211Z,3.20
2023-01-05T11:50:05.335Z,1.25
2023-01-05T11:52:37.472Z,2.38
2023-01-05T11:55:25.668Z,1.10
2023-01-05T11:58:00.004Z,1.70
2023-01-05T12:00:32.973Z,1.80
2023-01-05T12:03:30.671Z,2.22
2023-01-05T12:05:58.539Z,1.27
2023-01-05T12:08:30.796Z,1.52
2023-01-05T12:11:27.780Z,1.40
2023-01-05T12:14:24.578Z,2.13
2023-01-05T12:16:57.230Z,1.15
2023-01-05T12:19:37.036Z,0.73
2023-01-05T12:22:13.943Z,1.85
2023-01-05T12:24:52.648Z,1.63
2023-01-05T12:27:42.808Z,1.48
2023-01-05T12:34:04.195Z,1.20
2023-01-05T12:37:04.081Z,1.85
2023-01-05T12:40:10.109Z,2.90
2023-01-05T12:42:55.498Z,1.27
2023-01-05T12:45:48.254Z,1.95
2023-01-05T12:48:27.671Z,2.37
2023-01-05T12:51:34.334Z,1.17
2023-01-05T12:54:38.429Z,2.60
2023-01-05T12:57:14.124Z,3.05
2023-01-05T12:59:49.862Z,2.75
2023-01-05T13:02:26.645Z,1.50
2023-01-05T13:04:58.761Z,2.20
2023-01-05T13:07:41.844Z,3.15
2023-01-05T13:10:33.180Z,3.17
2023-01-05T13:13:02.813Z,3.50
2023-01-05T13:15:52.819Z,3.05
2023-01-05T13:18:19.645Z,1.60
2023-01-05T13:20:55.057Z,2.40
2023-01-05T13:23:26.335Z,3.50
2023-01-05T13:26:04.357Z,2.33
2023-01-05T13:28:32.015Z,2.88
2023-01-05T13:31:09.726Z,4.55
2023-01-05T13:33:54.348Z,3.22
2023-01-05T13:37:09.837Z,2.22
2023-01-05T13:40:34.402Z,1.77
2023-01-05T13:43:19.836Z,3.83
2023-01-05T13:46:14.717Z,3.33
2023-01-05T13:49:18.413Z,3.55
2023-01-05T13:52:17.667Z,3.88
2023-01-05T13:55:01.301Z,3.63
2023-01-05T13:57:36.569Z,2.33
2023-01-05T14:00:11.863Z,3.78
2023-01-05T14:02:41.754Z,3.13
2023-01-05T14:05:16.081Z,4.03
2023-01-05T14:07:42.820Z,3.55
2023-01-05T14:10:20.554Z,2.40
2023-01-05T14:12:48.890Z,4.13
2023-01-05T14:15:34.832Z,4.07
2023-01-05T14:18:02.709Z,2.50
2023-01-05T14:20:32.239Z,2.58
2023-01-05T14:22:59.207Z,2.58
2023-01-05T14:25:38.370Z,3.95
2023-01-05T14:28:30.278Z,2.65
2023-01-05T14:31:15.345Z,4.03
2023-01-05T14:33:59.778Z,2.72
2023-01-05T14:36:31.603Z,2.22
2023-01-05T14:38:58.951Z,3.22
2023-01-05T14:41:26.882Z,2.15
2023-01-05T14:43:58.592Z,1.92
2023-01-05T14:46:25.238Z,2.97
2023-01-05T14:49:06.866Z,3.08
2023-01-05T14:51:34.067Z,4.28
2023-01-05T14:54:05.467Z,2.95
2023-01-05T14:56:33.836Z,4.07
2023-01-05T14:59:19.769Z,1.33
2023-01-05T15:01:58.095Z,3.58
2023-01-05T15:04:38.463Z,2.40
2023-01-05T15:07:21.088Z,4.10
2023-01-05T15:10:10.073Z,4.95
2023-01-05T15:12:43.891Z,5.20
2023-01-05T15:15:28.840Z,3.78
2023-01-05T15:18:31.139Z,2.90
2023-01-05T15:21:22.414Z,4.32
2023-01-05T15:24:10.439Z,3.10
2023-01-05T15:27:02.244Z,2.50
2023-01-05T15:30:20.933Z,5.82
2023-01-05T15:32:54.266Z,4.70
2023-01-05T15:35:24.558Z,3.08
2023-01-05T15:37:52.344Z,5.25
2023-01-05T15:40:22.211Z,3.63
2023-01-05T15:42:50.900Z,3.85
2023-01-05T15:45:33.022Z,4.43
2023-01-05T15:48:20.581Z,2.97
2023-01-05T15:50:48.831Z,4.63
2023-01-05T15:53:35.524Z,4.43
2023-01-05T15:56:05.796Z,5.65
2023-01-05T15:58:46.020Z,2.83
2023-01-05T16:01:15.589Z,3.05
2023-01-05T16:03:46.132Z,4.25
2023-01-05T16:06:16.982Z,4.53
2023-01-05T16:08:45.125Z,3.95
2023-01-05T16:11:13.981Z,3.15
2023-01-05T16:13:44.459Z,3.45
2023-01-05T16:16:24.709Z,4.47
2023-01-05T16:19:06.235Z,3.83
2023-01-05T16:21:49.064Z,4.15
2023-01-05T16:24:53.616Z,2.78
2023-01-05T16:27:20.308Z,2.67
2023-01-05T16:29:47.846Z,2.90
2023-01-05T16:32:36.808Z,2.78
2023-01-05T16:35:22.943Z,1.92
2023-01-05T16:38:08.633Z,1.45
2023-01-05T16:40:50.722Z,2.70
2023-01-05T16:43:23.619Z,2.28
2023-01-05T16:45:51.576Z,2.67
2023-01-05T16:48:36.351Z,3.80
2023-01-05T16:51:30.533Z,1.45
2023-01-05T16:53:58.606Z,2.38
2023-01-05T16:56:31.865Z,1.25
2023-01-05T17:01:35.833Z,2.65
2023-01-05T17:04:12.874Z,1.25
2023-01-05T17:06:39.719Z,1.05
2023-01-05T17:09:11.931Z,0.85
2023-01-05T17:11:38.647Z,1.30
2023-01-05T17:14:06.461Z,2.30
2023-01-05T17:16:33.182Z,0.63
2023-01-05T17:19:01.993Z,1.73
2023-01-05T17:21:30.012Z,1.42
2023-01-05T17:23:57.916Z,1.55
2023-01-05T17:26:35.415Z,3.08
2023-01-05T17:31:35.335Z,2.85
2023-01-05T17:34:02.197Z,1.60
2023-01-05T17:36:33.065Z,3.08
2023-01-05T17:38:59.839Z,1.85
2023-01-05T17:41:26.623Z,1.88
2023-01-05T17:43:53.307Z,2.08
2023-01-05T17:46:22.302Z,1.80
2023-01-05T17:48:49.104Z,2.28
2023-01-05T17:51:15.927Z,2.42
2023-01-05T17:53:42.612Z,1.92
2023-01-05T17:56:09.342Z,2.67
2023-01-05T17:58:36.053Z,2.80
2023-01-05T18:01:04.592Z,1.67
2023-01-05T18:03:31.396Z,1.48
2023-01-05T18:05:59.566Z,1.88
2023-01-05T18:08:26.295Z,3.83
2023-01-05T18:10:53.355Z,1.35
2023-01-05T18:13:22.550Z,2.47
2023-01-05T18:15:50.571Z,1.80
2023-01-05T18:18:18.085Z,3.10
2023-01-05T18:20:44.771Z,1.58
2023-01-05T18:23:11.484Z,3.70
2023-01-05T18:25:39.114Z,2.72
2023-01-05T18:28:05.843Z,1.73
2023-01-05T18:30:32.747Z,0.85
2023-01-05T18:32:59.620Z,0.88
2023-01-05T18:35:26.909Z,3.38
2023-01-05T18:40:27.233Z,1.20
2023-01-05T18:42:54.739Z,0.98
2023-01-05T18:45:32.129Z,1.65
2023-01-05T18:48:04.990Z,1.40
2023-01-05T18:50:31.903Z,2.80
2023-01-05T18:52:58.561Z,1.45
2023-01-05T18:55:25.264Z,2.08
2023-01-05T18:57:51.997Z,2.42
2023-01-05T19:00:21.181Z,2.20
2023-01-05T19:02:48.185Z,3.40
2023-01-05T19:05:14.930Z,2.00
2023-01-05T19:07:41.794Z,1.80
2023-01-05T19:10:08.791Z,1.33
2023-01-05T19:12:35.456Z,2.75
2023-01-05T19:15:02.219Z,2.08
2023-01-05T19:17:29.029Z,0.93
2023-01-05T19:19:57.529Z,1.08
2023-01-05T19:22:24.298Z,2.38
2023-01-05T19:24:51.009Z,1.63
2023-01-05T19:27:17.696Z,1.83
2023-01-05T19:29:44.438Z,1.50
2023-01-05T19:32:11.145Z,1.25
2023-01-05T19:34:38.422Z,2.13
2023-01-05T19:37:06.282Z,2.05
2023-01-05T19:39:33.070Z,2.47
2023-01-05T19:42:00.133Z,2.40
2023-01-05T19:44:29.576Z,3.97
2023-01-05T19:46:56.380Z,2.47
2023-01-05T19:49:24.752Z,1.98
2023-01-05T19:51:51.850Z,1.48
2023-01-05T19:54:18.773Z,2.35
2023-01-05T19:56:45.672Z,1.85
2023-01-05T19:59:21.833Z,3.17
2023-01-05T20:01:48.980Z,2.53
2023-01-05T20:04:18.285Z,1.98
2023-01-05T20:06:45.651Z,2.95
2023-01-05T20:09:15.136Z,2.47
2023-01-05T20:11:43.684Z,1.63
2023-01-05T20:14:27.232Z,2.58
2023-01-05T20:19:26.794Z,3.38
2023-01-05T20:21:53.940Z,3.08
2023-01-05T20:24:25.643Z,1.67
2023-01-05T20:27:00.948Z,2.72
2023-01-05T20:29:27.836Z,2.50
2023-01-05T20:31:59.819Z,3.47
2023-01-05T20:34:29.799Z,2.20
2023-01-05T20:36:56.498Z,1.98
2023-01-05T20:39:23.248Z,2.85
2023-01-05T20:41:51.530Z,1.92
2023-01-05T20:44:20.472Z,3.45
2023-01-05T20:46:48.370Z,3.42
2023-01-05T20:49:15.328Z,3.33
2023-01-05T20:51:42.075Z,2.55
2023-01-05T20:54:10.099Z,2.88
2023-01-05T20:56:41.731Z,3.00
2023-01-05T20:59:11.522Z,2.78
2023-01-05T21:01:38.502Z,4.00
2023-01-05T21:04:06.329Z,3.60
2023-01-05T21:06:33.325Z,2.33
2023-01-05T21:09:00.430Z,2.63
2023-01-05T21:11:27.280Z,3.83
2023-01-05T21:13:54.619Z,3.47
2023-01-05T21:16:28.542Z,2.42
2023-01-05T21:18:55.322Z,1.33
2023-01-05T21:21:22.930Z,2.58
2023-01-05T21:23:50.509Z,1.15
2023-01-05T21:26:17.389Z,1.35
2023-01-05T21:28:44.548Z,1.67
2023-01-05T21:31:15.507Z,2.22
2023-01-05T21:33:42.355Z,3.63
2023-01-05T21:36:20.121Z,2.13
2023-01-05T21:39:07.245Z,4.82
2023-01-05T21:41:53.582Z,3.22
2023-01-05T21:44:20.397Z,1.80
2023-01-05T21:46:47.337Z,2.28
2023-01-05T21:49:14.674Z,1.40
2023-01-05T21:51:59.872Z,1.05
2023-01-05T21:54:45.167Z,1.52
2023-01-05T21:57:11.969Z,1.08
2023-01-05T21:59:38.698Z,1.83
2023-01-05T22:02:05.427Z,1.13
2023-01-05T22:04:32.153Z,1.23
2023-01-05T22:06:58.824Z,1.52
2023-01-05T22:09:25.698Z,1.92
2023-01-05T22:11:52.560Z,3.63
2023-01-05T22:14:19.335Z,1.50
2023-01-05T22:16:46.061Z,1.13
2023-01-05T22:19:12.898Z,2.20
2023-01-05T22:21:39.736Z,2.08
2023-01-05T22:24:07.035Z,2.00
2023-01-05T22:26:33.742Z,1.83
2023-01-05T22:29:00.532Z,1.35
2023-01-05T22:31:28.850Z,1.13
2023-01-05T22:33:57.499Z,0.93
2023-01-05T22:36:24.704Z,2.55
2023-01-05T22:38:52.032Z,1.05
2023-01-05T22:41:21.394Z,1.05
2023-01-05T22:43:48.510Z,0.73
2023-01-05T22:46:19.884Z,1.65
2023-01-05T22:48:47.505Z,1.65
2023-01-05T22:51:17.410Z,1.13
2023-01-05T22:53:44.496Z,4.15
2023-01-05T22:56:12.478Z,1.85
2023-01-05T22:58:39.331Z,1.52
2023-01-05T23:01:07.139Z,2.40
2023-01-05T23:03:33.919Z,1.02
2023-01-05T23:06:00.720Z,1.60
2023-01-05T23:08:27.675Z,2.15
2023-01-05T23:11:08.732Z,1.65
2023-01-05T23:13:35.662Z,2.05
2023-01-05T23:16:02.387Z,2.90
2023-01-05T23:18:29.099Z,4.65
2023-01-05T23:21:00.263Z,2.05
2023-01-05T23:23:27.329Z,1.67
2023-01-05T23:25:54.414Z,2.35
2023-01-05T23:28:22.578Z,1.60
2023-01-05T23:30:50.694Z,3.55
2023-01-05T23:33:18.568Z,2.00
2023-01-05T23:35:45.779Z,2.83
2023-01-05T23:38:12.604Z,2.83
2023-01-05T23:40:47.103Z,5.55
2023-01-05T23:43:14.782Z,2.15
2023-01-05T23:45:43.085Z,3.47
2023-01-05T23:48:10.486Z,1.98
2023-01-05T23:50:37.297Z,1.70
2023-01-05T23:53:04.176Z,2.05
2023-01-05T23:55:30.895Z,3.00
2023-01-05T23:57:58.548Z,1.15
